Time;durP1;ratioP1;P1;durP2;ratioP2;P2;SDS_P1;SDS_P2;PMS_P1;PMS_P2;Temp;Humidity;BMP_temperature;BMP_pressure;BME280_temperature;BME280_humidity;BME280_pressure;Samples;Min_cycle;Max_cycle;Signal;HPM_P1;HPM_P2
2023/08/25 00:01:39;;;;;;;176.98;169.73;;;;;;;27.59;44.28;100830.53;5043485;28;20037;-71
2023/08/25 00:04:04;;;;;;;174.65;167.35;;;;;;;27.57;44.03;100830.09;5047665;28;20037;-71
2023/08/25 00:06:30;;;;;;;175.23;167.93;;;;;;;27.55;44.09;100827.69;5049792;28;20041;-71
2023/08/25 00:08:55;;;;;;;176.45;169.20;;;;;;;27.53;44.22;100826.41;5045988;28;20036;-72
2023/08/25 00:11:20;;;;;;;171.73;164.70;;;;;;;27.52;44.27;100828.41;5047165;28;20108;-70
2023/08/25 00:13:46;;;;;;;174.95;167.82;;;;;;;27.50;44.20;100830.72;5044030;28;20036;-71
2023/08/25 00:16:12;;;;;;;179.40;171.80;;;;;;;27.49;44.18;100825.50;5042739;28;20029;-71
2023/08/25 00:18:40;;;;;;;172.70;165.40;;;;;;;27.48;44.06;100832.22;5047344;28;20098;-71
2023/08/25 00:21:06;;;;;;;171.73;164.57;;;;;;;27.45;44.23;100841.28;5037451;28;20040;-71
2023/08/25 00:23:31;;;;;;;173.75;166.48;;;;;;;27.44;44.37;100834.09;5041637;28;20069;-71
2023/08/25 00:25:56;;;;;;;171.55;164.40;;;;;;;27.41;44.19;100833.63;5047292;28;20045;-71
2023/08/25 00:28:22;;;;;;;168.07;160.93;;;;;;;27.39;44.35;100829.59;5042523;28;20489;-71
2023/08/25 00:30:48;;;;;;;171.90;164.80;;;;;;;27.38;44.32;100828.81;5046506;28;20104;-71
2023/08/25 00:33:14;;;;;;;172.02;164.57;;;;;;;27.36;44.46;100822.81;5042737;28;20072;-71
2023/08/25 00:35:41;;;;;;;170.60;163.43;;;;;;;27.35;44.26;100829.53;5042318;28;20423;-71
2023/08/25 00:38:06;;;;;;;172.23;165.02;;;;;;;27.33;44.39;100820.75;5041252;28;20037;-71
2023/08/25 00:40:38;;;;;;;169.70;162.68;;;;;;;27.31;44.17;100823.06;5043685;28;20048;-71
2023/08/25 00:43:04;;;;;;;166.90;159.50;;;;;;;27.30;44.47;100820.66;5050453;28;20043;-71
2023/08/25 00:45:37;;;;;;;170.30;163.00;;;;;;;27.29;44.34;100824.56;5044467;28;20045;-71
2023/08/25 00:48:03;;;;;;;171.23;164.02;;;;;;;27.26;44.55;100825.28;5038458;28;20040;-71
2023/08/25 00:50:29;;;;;;;173.88;166.48;;;;;;;27.24;44.55;100822.88;5045547;28;20501;-71
2023/08/25 00:52:55;;;;;;;168.45;161.38;;;;;;;27.22;44.52;100825.19;5048723;28;20056;-71
2023/08/25 00:55:21;;;;;;;171.57;164.48;;;;;;;27.22;44.36;100821.63;5045623;28;20337;-71
2023/08/25 00:57:47;;;;;;;171.63;164.32;;;;;;;27.20;44.38;100813.66;5040742;28;20044;-71
2023/08/25 01:00:14;;;;;;;174.25;166.98;;;;;;;27.19;44.00;100828.69;5029789;28;20037;-71
2023/08/25 01:02:39;;;;;;;171.15;163.98;;;;;;;27.17;44.19;100825.44;5050968;28;20044;-71
2023/08/25 01:05:07;;;;;;;169.10;161.90;;;;;;;27.15;44.24;100822.19;5037477;28;20034;-71
2023/08/25 01:07:32;;;;;;;175.27;167.68;;;;;;;27.13;44.39;100819.75;5038251;28;20033;-71
2023/08/25 01:09:58;;;;;;;171.23;163.93;;;;;;;27.12;44.83;100826.47;5045711;28;20037;-72
2023/08/25 01:12:39;;;;;;;169.02;161.73;;;;;;;27.10;44.22;100819.69;5044244;28;20037;-71
2023/08/25 01:15:12;;;;;;;165.80;158.82;;;;;;;27.09;44.33;100818.03;5039949;28;20465;-71
2023/08/25 01:17:57;;;;;;;171.15;163.90;;;;;;;27.04;44.19;100816.34;5042565;28;20056;-71
2023/08/25 01:20:24;;;;;;;173.15;165.98;;;;;;;27.04;44.34;100818.31;5044176;28;20032;-71
2023/08/25 01:22:50;;;;;;;167.00;159.93;;;;;;;27.03;44.16;100811.16;5046965;28;20053;-72
2023/08/25 01:25:24;;;;;;;167.55;160.45;;;;;;;27.01;44.42;100816.25;5047419;28;20044;-72
2023/08/25 01:27:52;;;;;;;167.35;160.23;;;;;;;26.99;44.52;100813.84;5043160;28;20112;-72
2023/08/25 01:30:18;;;;;;;;;;;;;;;26.93;44.52;100812.47;5048853;28;20032;-71
2023/08/25 01:32:44;;;;;;;160.32;153.38;;;;;;;26.95;44.31;100815.69;5043692;28;19921;-72
2023/08/25 01:35:14;;;;;;;164.00;156.90;;;;;;;26.93;44.53;100804.16;5038684;28;20119;-72
2023/08/25 01:37:50;;;;;;;170.55;163.15;;;;;;;26.92;44.45;100799.78;5043611;28;20029;-71
2023/08/25 01:40:23;;;;;;;169.07;161.95;;;;;;;26.90;44.38;100796.53;5043607;28;20036;-71
2023/08/25 01:42:53;;;;;;;170.77;163.68;;;;;;;26.89;44.30;100803.25;5049724;28;20040;-71
2023/08/25 01:45:20;;;;;;;163.82;156.95;;;;;;;26.87;44.34;100797.25;5045914;28;20044;-71
2023/08/25 01:47:47;;;;;;;168.40;161.13;;;;;;;26.86;44.38;100793.69;5044232;28;20029;-70
2023/08/25 01:50:14;;;;;;;167.80;160.70;;;;;;;26.86;44.67;100788.13;5040183;28;20037;-70
2023/08/25 01:52:41;;;;;;;170.10;162.90;;;;;;;26.85;44.31;100785.72;5043024;28;20044;-72
2023/08/25 01:55:08;;;;;;;167.30;160.25;;;;;;;26.84;44.43;100786.84;5048355;28;20037;-71
2023/08/25 01:57:33;;;;;;;165.40;158.35;;;;;;;26.83;44.59;100788.81;5046316;28;20040;-70
2023/08/25 01:59:59;;;;;;;162.18;155.18;;;;;;;26.81;44.29;100788.34;5037661;28;20041;-71
2023/08/25 02:02:24;;;;;;;164.02;157.02;;;;;;;26.81;44.77;100782.00;5042425;28;20035;-70
2023/08/25 02:04:49;;;;;;;167.90;160.88;;;;;;;26.79;44.48;100785.16;5041818;28;20037;-70
2023/08/25 02:07:15;;;;;;;168.20;160.80;;;;;;;26.78;44.53;100783.53;5046149;28;20036;-71
2023/08/25 02:09:41;;;;;;;165.95;158.80;;;;;;;26.75;44.44;100773.94;5044258;28;20052;-70
2023/08/25 02:12:06;;;;;;;158.60;151.60;;;;;;;26.75;44.65;100782.25;5045147;28;20164;-71
2023/08/25 02:14:32;;;;;;;159.23;152.52;;;;;;;26.73;44.65;100784.56;5039761;28;20389;-70
2023/08/25 02:16:57;;;;;;;158.32;151.55;;;;;;;26.73;44.65;100778.22;5045271;28;20043;-70
2023/08/25 02:19:23;;;;;;;162.20;155.32;;;;;;;26.70;44.78;100774.19;5037443;28;20037;-70
2023/08/25 02:21:48;;;;;;;160.77;153.98;;;;;;;26.69;44.79;100767.06;5053386;28;20036;-70
2023/08/25 02:24:13;;;;;;;162.85;156.05;;;;;;;26.69;44.60;100769.81;5043924;28;20152;-70
2023/08/25 02:26:39;;;;;;;157.18;150.38;;;;;;;26.68;44.52;100768.19;5039680;28;20037;-70
2023/08/25 02:29:05;;;;;;;156.60;150.02;;;;;;;26.67;44.85;100763.03;5035474;28;20029;-70
2023/08/25 02:31:31;;;;;;;158.05;151.40;;;;;;;26.65;44.48;100760.59;5040662;28;20044;-70
2023/08/25 02:33:56;;;;;;;159.13;152.32;;;;;;;26.63;44.52;100754.59;5046370;28;20443;-70
2023/08/25 02:36:22;;;;;;;159.43;152.63;;;;;;;26.63;44.92;100751.81;5041669;28;20036;-70
2023/08/25 02:38:47;;;;;;;158.73;151.82;;;;;;;26.62;44.66;100746.66;5041104;28;20033;-70
2023/08/25 02:41:12;;;;;;;159.65;152.82;;;;;;;26.62;44.49;100741.09;5039650;28;20040;-71
2023/08/25 02:43:38;;;;;;;157.60;150.90;;;;;;;26.60;44.92;100743.41;5048661;28;20045;-71
2023/08/25 02:46:03;;;;;;;158.45;151.68;;;;;;;26.59;44.50;100731.53;5052783;28;20033;-70
2023/08/25 02:48:29;;;;;;;163.15;156.15;;;;;;;26.58;44.64;100731.88;5043685;28;20035;-71
2023/08/25 02:50:54;;;;;;;166.20;158.98;;;;;;;26.58;44.58;100729.09;5038307;28;20449;-71
2023/08/25 02:53:20;;;;;;;161.10;154.15;;;;;;;26.56;44.66;100732.25;5041476;28;20144;-71
2023/08/25 02:55:46;;;;;;;163.07;156.10;;;;;;;26.54;44.59;100727.03;5039354;28;20477;-71
2023/08/25 02:58:12;;;;;;;154.52;147.90;;;;;;;26.53;44.83;100728.22;5044704;28;20036;-71
2023/08/25 03:00:38;;;;;;;163.02;155.65;;;;;;;26.53;44.89;100721.84;5042476;28;20431;-71
2023/08/25 03:03:04;;;;;;;158.73;151.95;;;;;;;26.51;44.78;100716.66;5043506;28;20041;-71
2023/08/25 03:05:29;;;;;;;164.63;157.45;;;;;;;26.51;44.79;100727.72;5036202;28;20866;-71
2023/08/25 03:07:54;;;;;;;157.40;150.80;;;;;;;26.50;44.80;100725.28;5035583;28;20040;-71
2023/08/25 03:10:20;;;;;;;158.55;151.55;;;;;;;26.49;44.67;100726.47;5043867;28;20514;-70
2023/08/25 03:12:46;;;;;;;157.50;150.73;;;;;;;26.47;44.70;100721.25;5040438;28;20036;-70
2023/08/25 03:15:11;;;;;;;159.38;152.60;;;;;;;26.46;44.69;100727.97;5040216;28;20048;-72
2023/08/25 03:17:37;;;;;;;160.32;153.43;;;;;;;26.46;44.99;100713.28;5044887;28;20109;-70
2023/08/25 03:20:03;;;;;;;159.60;152.45;;;;;;;26.44;44.55;100721.97;5041390;28;20040;-71
2023/08/25 03:22:29;;;;;;;156.50;149.82;;;;;;;26.44;44.63;100710.91;5047176;28;20041;-71
2023/08/25 03:24:54;;;;;;;157.32;150.68;;;;;;;26.43;44.92;100700.97;5040367;28;20064;-70
2023/08/25 03:27:20;;;;;;;156.88;150.07;;;;;;;26.42;44.52;100687.47;5042506;28;20396;-71
2023/08/25 03:29:45;;;;;;;160.27;153.43;;;;;;;26.40;44.90;100681.47;5039980;28;20473;-71
2023/08/25 03:32:11;;;;;;;159.23;152.52;;;;;;;26.39;44.88;100683.44;5041300;28;20377;-71
2023/08/25 03:34:36;;;;;;;155.63;148.80;;;;;;;26.39;44.74;100688.19;5048236;28;20056;-72
2023/08/25 03:37:03;;;;;;;155.75;149.10;;;;;;;26.37;44.87;100683.00;5042482;28;20041;-72
2023/08/25 03:39:29;;;;;;;160.90;154.02;;;;;;;26.37;45.01;100683.00;5041556;28;20033;-72
2023/08/25 03:41:54;;;;;;;154.80;148.15;;;;;;;26.35;44.62;100674.22;5043119;28;20053;-72
2023/08/25 03:44:20;;;;;;;167.32;160.13;;;;;;;26.36;44.98;100669.47;5040540;28;20033;-72
2023/08/25 03:46:45;;;;;;;155.75;149.07;;;;;;;26.34;45.00;100667.88;5038207;28;20037;-72
2023/08/25 03:49:11;;;;;;;160.57;153.77;;;;;;;26.32;45.01;100670.19;5044120;28;20061;-71
2023/08/25 03:51:36;;;;;;;163.35;156.43;;;;;;;26.31;44.77;100676.91;5039956;28;20032;-71
2023/08/25 03:54:02;;;;;;;157.38;150.50;;;;;;;26.31;44.97;100681.63;5043973;28;20045;-72
2023/08/25 03:56:27;;;;;;;159.25;152.48;;;;;;;26.30;44.79;100677.25;5039033;28;20465;-71
2023/08/25 03:58:53;;;;;;;156.25;149.48;;;;;;;26.29;45.01;100670.91;5037879;28;20033;-71
2023/08/25 04:01:18;;;;;;;159.98;153.02;;;;;;;26.28;44.84;100669.31;5039295;28;20099;-74
2023/08/25 04:03:43;;;;;;;159.98;153.07;;;;;;;26.27;44.92;100673.22;5045826;28;20059;-72
2023/08/25 04:06:09;;;;;;;157.65;150.95;;;;;;;26.27;44.80;100669.63;5040214;28;20033;-73
2023/08/25 04:08:34;;;;;;;161.05;153.98;;;;;;;26.25;45.10;100667.22;5058442;28;20047;-71
2023/08/25 04:11:00;;;;;;;157.05;149.73;;;;;;;26.24;44.93;100665.59;5042919;28;20029;-71
2023/08/25 04:13:25;;;;;;;155.85;148.95;;;;;;;26.24;44.81;100667.56;5044824;28;20495;-71
2023/08/25 04:15:58;;;;;;;160.35;153.55;;;;;;;26.23;44.65;100665.94;5040013;28;20076;-72
2023/08/25 04:18:24;;;;;;;156.18;149.38;;;;;;;26.22;44.97;100670.69;5041438;28;20489;-72
2023/08/25 04:20:50;;;;;;;160.57;153.32;;;;;;;26.22;44.78;100672.66;5041486;28;20389;-72
2023/08/25 04:23:16;;;;;;;153.75;147.15;;;;;;;26.21;44.85;100666.31;5036177;28;20041;-71
2023/08/25 04:25:42;;;;;;;156.23;149.38;;;;;;;26.20;45.18;100674.97;5048281;28;20068;-73
2023/08/25 04:28:07;;;;;;;155.43;148.82;;;;;;;26.18;44.89;100671.72;5044696;28;20076;-72
2023/08/25 04:30:33;;;;;;;157.43;150.52;;;;;;;26.18;44.78;100675.31;5019648;28;20491;-72
2023/08/25 04:32:58;;;;;;;154.68;148.00;;;;;;;26.17;45.14;100684.78;5042740;28;20052;-74
2023/08/25 04:35:23;;;;;;;157.27;150.45;;;;;;;26.17;45.27;100672.91;5047124;28;20500;-72
2023/08/25 04:37:50;;;;;;;154.02;147.35;;;;;;;26.15;45.04;100664.94;5037196;28;20147;-72
2023/08/25 04:40:19;;;;;;;152.82;146.20;;;;;;;26.15;45.17;100669.66;5045045;28;20034;-72
2023/08/25 04:42:44;;;;;;;155.45;148.73;;;;;;;26.12;45.07;100669.22;5042320;28;20045;-71
2023/08/25 04:45:11;;;;;;;157.68;150.93;;;;;;;26.11;44.88;100667.59;5045496;28;20045;-71
2023/08/25 04:47:37;;;;;;;152.43;145.73;;;;;;;26.11;45.13;100675.91;5043852;28;20059;-72
2023/08/25 04:50:03;;;;;;;155.90;149.23;;;;;;;26.11;44.94;100672.34;5043840;28;20489;-72
2023/08/25 04:52:36;;;;;;;154.20;147.60;;;;;;;26.10;45.01;100667.94;5041862;28;20502;-70
2023/08/25 04:55:05;;;;;;;151.73;145.02;;;;;;;26.10;45.17;100671.50;5047466;28;20036;-71
2023/08/25 04:57:31;;;;;;;157.98;150.95;;;;;;;26.07;45.10;100660.34;5048103;28;20033;-71
2023/08/25 04:59:57;;;;;;;151.13;144.63;;;;;;;26.07;44.89;100655.63;5046927;28;20370;-72
2023/08/25 05:02:23;;;;;;;156.38;149.77;;;;;;;26.06;44.92;100650.44;5042462;28;20032;-73
2023/08/25 05:04:48;;;;;;;152.77;146.10;;;;;;;26.04;45.23;100638.91;5044138;28;20038;-72
2023/08/25 05:07:13;;;;;;;154.50;147.57;;;;;;;26.04;44.85;100641.69;5042547;28;20033;-69
2023/08/25 05:09:39;;;;;;;154.80;147.70;;;;;;;26.04;45.17;100658.28;5049909;28;20033;-71
2023/08/25 05:12:05;;;;;;;152.45;145.85;;;;;;;26.02;45.13;100650.31;5046670;28;20047;-71
2023/08/25 05:14:30;;;;;;;154.40;147.73;;;;;;;26.03;45.19;100664.97;5047814;28;20037;-72
2023/08/25 05:16:56;;;;;;;156.77;150.05;;;;;;;26.02;45.07;100657.81;5051522;28;20493;-73
2023/08/25 05:19:21;;;;;;;151.95;145.25;;;;;;;26.02;45.19;100657.81;5046182;28;20457;-72
2023/08/25 05:21:46;;;;;;;148.45;141.95;;;;;;;26.01;45.32;100653.47;5042691;28;20041;-72
2023/08/25 05:24:20;;;;;;;149.93;143.48;;;;;;;26.00;45.11;100671.19;5044926;28;20520;-72
2023/08/25 05:26:52;;;;;;;148.65;142.23;;;;;;;25.99;45.16;100650.22;5044429;28;20047;-70
2023/08/25 05:29:22;;;;;;;151.15;144.65;;;;;;;25.98;45.35;100643.91;5046210;28;20033;-70
2023/08/25 05:31:48;;;;;;;151.95;145.43;;;;;;;25.97;45.20;100650.56;5040572;28;20116;-71
2023/08/25 05:34:14;;;;;;;155.45;148.80;;;;;;;25.97;45.06;100655.31;5040761;28;20116;-71
2023/08/25 05:36:41;;;;;;;152.40;145.73;;;;;;;25.96;45.31;100648.97;5040941;28;20040;-71
2023/08/25 05:39:06;;;;;;;152.10;145.50;;;;;;;25.94;45.02;100640.19;5046342;28;20110;-71
2023/08/25 05:41:32;;;;;;;153.18;146.38;;;;;;;25.94;45.21;100631.09;5046152;28;20473;-70
2023/08/25 05:43:58;;;;;;;151.10;144.65;;;;;;;25.93;45.09;100619.22;5045955;28;20068;-70
2023/08/25 05:46:24;;;;;;;149.57;143.10;;;;;;;25.92;45.20;100612.06;5041945;28;20056;-71
2023/08/25 05:48:49;;;;;;;149.90;143.48;;;;;;;25.92;45.23;100617.59;5041758;28;20465;-70
2023/08/25 05:51:15;;;;;;;149.70;143.25;;;;;;;25.92;45.00;100627.88;5042146;28;20111;-71
2023/08/25 05:53:40;;;;;;;150.65;144.20;;;;;;;25.89;44.98;100624.63;5043558;28;20037;-72
2023/08/25 05:56:06;;;;;;;152.48;145.63;;;;;;;25.89;45.29;100623.84;5046021;28;20029;-70
2023/08/25 05:58:31;;;;;;;152.10;145.48;;;;;;;25.89;45.44;100641.25;5044311;28;20043;-72
2023/08/25 06:00:57;;;;;;;149.80;143.00;;;;;;;25.88;45.46;100623.03;5044743;28;20043;-72
2023/08/25 06:03:23;;;;;;;147.65;141.25;;;;;;;25.87;45.20;100601.25;5049627;28;20037;-73
2023/08/25 06:05:51;;;;;;;147.55;141.18;;;;;;;25.87;45.16;100610.34;5050960;28;20081;-70
2023/08/25 06:08:17;;;;;;;148.30;141.82;;;;;;;25.86;45.34;100602.41;5046737;28;20040;-70
2023/08/25 06:10:42;;;;;;;150.73;144.20;;;;;;;25.86;44.97;100602.41;5039036;28;20044;-69
2023/08/25 06:13:08;;;;;;;149.40;142.65;;;;;;;25.85;45.06;100596.03;5043077;28;20381;-70
2023/08/25 06:15:33;;;;;;;151.18;144.52;;;;;;;25.84;45.20;100594.41;5031040;28;20120;-70
2023/08/25 06:17:59;;;;;;;151.00;144.38;;;;;;;25.83;45.40;100587.28;5044689;28;20500;-70
2023/08/25 06:20:24;;;;;;;146.57;140.27;;;;;;;25.83;45.23;100592.81;5043312;28;20037;-70
2023/08/25 06:22:49;;;;;;;150.13;143.60;;;;;;;25.83;45.56;100595.59;5044948;28;20033;-70
2023/08/25 06:25:16;;;;;;;149.85;143.32;;;;;;;25.81;45.41;100611.72;5040615;28;20585;-70
2023/08/25 06:27:41;;;;;;;154.80;148.15;;;;;;;25.82;45.25;100629.13;5044143;28;20094;-72
2023/08/25 06:30:08;;;;;;;147.40;141.10;;;;;;;25.81;45.24;100650.47;5038366;28;20029;-70
2023/08/25 06:32:33;;;;;;;148.50;142.00;;;;;;;25.81;45.44;100663.50;5039790;28;20068;-71
2023/08/25 06:34:58;;;;;;;148.98;142.48;;;;;;;25.80;45.08;100664.63;5041843;28;20424;-71
2023/08/25 06:37:24;;;;;;;148.60;141.85;;;;;;;25.79;45.53;100665.78;5037846;28;20033;-73
2023/08/25 06:39:50;;;;;;;150.90;144.32;;;;;;;25.78;45.28;100653.09;5040106;28;20055;-70
2023/08/25 06:42:16;;;;;;;147.50;141.05;;;;;;;25.77;45.42;100659.78;5041955;28;20330;-70
2023/08/25 06:44:42;;;;;;;149.63;143.00;;;;;;;25.74;45.38;100622.56;5038054;28;20037;-70
2023/08/25 06:47:07;;;;;;;150.90;144.20;;;;;;;25.73;45.61;100590.53;5038015;28;20232;-71
2023/08/25 06:49:33;;;;;;;153.70;146.90;;;;;;;25.74;45.43;100569.19;5040309;28;20420;-72
2023/08/25 06:51:58;;;;;;;148.52;142.20;;;;;;;25.73;45.20;100545.44;5048407;28;20477;-70
2023/08/25 06:54:26;;;;;;;150.15;143.32;;;;;;;25.73;45.45;100532.44;5050195;28;20032;-70
2023/08/25 06:56:52;;;;;;;153.20;146.60;;;;;;;25.72;45.19;100572.31;5050473;28;20109;-72
2023/08/25 06:59:18;;;;;;;150.07;143.27;;;;;;;25.73;45.68;100586.94;5038900;28;20151;-71
2023/08/25 07:01:44;;;;;;;154.30;147.43;;;;;;;25.72;45.64;100602.75;5040967;28;20032;-70
2023/08/25 07:04:10;;;;;;;147.98;141.23;;;;;;;25.72;45.46;100613.81;5048635;28;20056;-70
2023/08/25 07:06:36;;;;;;;148.35;141.88;;;;;;;25.72;45.38;100599.97;5039741;28;20041;-72
2023/08/25 07:09:02;;;;;;;150.30;143.80;;;;;;;25.72;45.77;100608.28;5041786;28;20063;-71
2023/08/25 07:11:28;;;;;;;150.82;144.23;;;;;;;25.71;45.51;100583.75;5041582;28;20166;-72
2023/08/25 07:13:53;;;;;;;152.13;145.50;;;;;;;25.70;45.32;100577.38;5042887;28;20818;-71
2023/08/25 07:16:19;;;;;;;152.88;146.32;;;;;;;25.70;45.59;100638.25;5059114;28;20068;-70
2023/08/25 07:18:45;;;;;;;149.18;142.68;;;;;;;25.68;45.42;100706.97;5040781;28;20057;-70
2023/08/25 07:21:11;;;;;;;150.50;143.98;;;;;;;25.67;45.41;100736.56;5048587;28;20075;-69
2023/08/25 07:23:37;;;;;;;152.10;145.38;;;;;;;25.66;45.13;100720.31;5041526;28;20119;-75
2023/08/25 07:26:03;;;;;;;147.10;140.68;;;;;;;25.65;45.35;100682.72;5039839;28;20051;-71
2023/08/25 07:28:29;;;;;;;148.40;141.85;;;;;;;25.64;45.84;100659.81;5042364;28;20124;-71
2023/08/25 07:30:56;;;;;;;152.20;145.45;;;;;;;25.63;45.48;100633.31;5045592;28;20107;-70
2023/08/25 07:33:23;;;;;;;143.95;137.57;;;;;;;25.63;45.50;100599.31;5034250;28;20060;-71
2023/08/25 07:35:48;;;;;;;149.57;142.93;;;;;;;25.65;45.54;100624.66;5036995;28;20087;-73
2023/08/25 07:38:14;;;;;;;150.50;143.70;;;;;;;25.65;46.08;100624.66;5045134;28;20435;-71
2023/08/25 07:40:39;;;;;;;149.52;142.63;;;;;;;25.64;46.61;100629.38;5049841;28;20443;-73
2023/08/25 07:43:05;;;;;;;148.93;142.07;;;;;;;25.63;46.60;100625.00;5046816;28;20124;-71
2023/08/25 07:45:31;;;;;;;145.73;139.27;;;;;;;25.63;46.65;100632.50;5048184;28;20037;-76
2023/08/25 07:47:59;;;;;;;153.25;146.38;;;;;;;25.63;46.96;100638.03;5040831;28;20045;-75
2023/08/25 07:50:25;;;;;;;;;;;;;;;25.58;47.05;100641.03;5053555;28;20060;-72
2023/08/25 07:52:51;;;;;;;147.68;140.63;;;;;;;25.60;47.11;100645.06;5039405;28;19917;-72
2023/08/25 07:55:16;;;;;;;149.05;142.32;;;;;;;25.59;46.80;100650.94;5043674;28;20366;-72
2023/08/25 07:57:42;;;;;;;150.70;143.70;;;;;;;25.60;46.98;100647.00;5037894;28;20045;-72
2023/08/25 08:00:15;;;;;;;147.88;141.18;;;;;;;25.59;47.43;100632.38;5040352;28;20491;-72
2023/08/25 08:02:50;;;;;;;148.02;141.55;;;;;;;25.60;47.13;100635.94;5056841;28;20469;-72
2023/08/25 08:05:17;;;;;;;148.57;142.10;;;;;;;25.59;47.11;100648.97;5035317;28;20098;-71
2023/08/25 08:07:44;;;;;;;146.43;139.88;;;;;;;25.59;47.37;100648.19;5044575;28;20175;-72
2023/08/25 08:10:10;;;;;;;147.07;140.50;;;;;;;25.59;47.20;100650.94;5045698;28;20487;-71
2023/08/25 08:12:36;;;;;;;149.40;142.75;;;;;;;25.58;46.96;100639.06;5046713;28;20041;-71
2023/08/25 08:15:03;;;;;;;147.20;140.77;;;;;;;25.59;47.25;100651.75;5042513;28;20029;-71
2023/08/25 08:17:30;;;;;;;145.50;139.23;;;;;;;25.58;47.24;100652.91;5053495;28;20037;-71
2023/08/25 08:19:55;;;;;;;147.73;141.32;;;;;;;25.58;46.99;100647.38;5035086;28;20082;-71
2023/08/25 08:22:21;;;;;;;147.57;141.23;;;;;;;25.58;47.36;100641.84;5046109;28;20029;-71
2023/08/25 08:24:50;;;;;;;148.10;141.70;;;;;;;25.59;47.13;100642.66;5046108;28;20053;-71
2023/08/25 08:27:18;;;;;;;148.98;142.57;;;;;;;25.59;47.14;100642.66;5043610;28;20033;-71
2023/08/25 08:29:45;;;;;;;145.68;139.20;;;;;;;25.58;47.04;100646.56;5050137;28;20033;-71
2023/08/25 08:32:12;;;;;;;144.70;138.25;;;;;;;25.57;46.70;100642.19;5047569;28;20029;-71
2023/08/25 08:34:37;;;;;;;146.88;140.57;;;;;;;25.57;46.94;100647.72;5038929;28;20037;-71
2023/08/25 08:37:05;;;;;;;142.88;136.77;;;;;;;25.56;47.24;100652.44;5038445;28;20071;-71
2023/08/25 08:39:33;;;;;;;144.95;138.65;;;;;;;25.55;46.80;100641.72;5040113;28;20033;-72
2023/08/25 08:42:02;;;;;;;146.27;139.88;;;;;;;25.55;46.79;100634.25;5045341;28;20033;-71
2023/08/25 08:44:30;;;;;;;147.60;141.13;;;;;;;25.55;46.97;100645.31;5051756;28;20194;-71
2023/08/25 08:46:56;;;;;;;143.65;137.52;;;;;;;25.53;46.85;100664.19;5052581;28;20579;-72
2023/08/25 08:49:23;;;;;;;142.23;136.07;;;;;;;25.53;46.74;100666.97;5046396;28;20033;-71
2023/08/25 08:51:50;;;;;;;143.57;137.48;;;;;;;25.54;46.63;100654.75;5037179;28;20048;-72
2023/08/25 08:54:19;;;;;;;141.35;135.32;;;;;;;25.54;46.80;100653.94;5038569;28;20094;-69
2023/08/25 08:56:46;;;;;;;140.13;134.15;;;;;;;25.53;46.85;100660.59;5041614;28;20040;-72
2023/08/25 08:59:11;;;;;;;140.43;134.45;;;;;;;25.51;46.86;100672.03;5046338;28;20040;-72
2023/08/25 09:01:38;;;;;;;142.18;136.10;;;;;;;25.51;46.93;100691.41;5051040;28;20041;-71
2023/08/25 09:04:08;;;;;;;143.88;137.57;;;;;;;25.52;46.79;100686.66;5052918;28;20040;-71
2023/08/25 09:06:36;;;;;;;144.82;138.73;;;;;;;25.51;46.71;100674.81;5040974;28;20037;-71
2023/08/25 09:09:05;;;;;;;145.73;139.48;;;;;;;25.50;46.65;100664.88;5047031;28;20029;-70
2023/08/25 09:11:31;;;;;;;144.10;137.85;;;;;;;25.48;46.77;100654.16;5042799;28;20034;-70
2023/08/25 09:13:58;;;;;;;144.90;138.60;;;;;;;25.50;46.86;100661.31;5039890;28;20045;-70
2023/08/25 09:16:24;;;;;;;143.88;137.75;;;;;;;25.51;46.75;100657.41;5038916;28;20031;-72
2023/08/25 09:18:52;;;;;;;144.15;137.70;;;;;;;25.50;46.80;100659.34;5050118;28;20037;-71
2023/08/25 09:21:20;;;;;;;146.52;140.35;;;;;;;25.49;46.73;100652.22;5053325;28;20029;-72
2023/08/25 09:23:54;;;;;;;144.80;138.70;;;;;;;25.48;46.48;100645.06;5048360;28;20090;-72
2023/08/25 09:26:20;;;;;;;143.32;137.25;;;;;;;25.48;46.81;100651.41;5035141;28;20045;-71
2023/08/25 09:28:45;;;;;;;144.20;137.80;;;;;;;25.47;46.74;100647.00;5033557;28;20212;-71
2023/08/25 09:31:22;;;;;;;144.35;138.23;;;;;;;25.47;46.74;100651.75;5036241;28;20033;-71
2023/08/25 09:33:50;;;;;;;144.32;138.23;;;;;;;25.47;46.71;100666.38;5050073;28;20057;-71
2023/08/25 09:36:15;;;;;;;144.43;138.35;;;;;;;25.47;46.49;100671.09;5040819;28;20083;-71
2023/08/25 09:38:46;;;;;;;146.95;140.73;;;;;;;25.47;46.63;100660.84;5047728;28;20063;-71
2023/08/25 09:41:12;;;;;;;143.93;137.77;;;;;;;25.47;46.52;100663.59;5047035;28;20123;-70
2023/08/25 09:43:40;;;;;;;143.40;137.32;;;;;;;25.47;46.69;100648.97;5055678;28;20485;-71
2023/08/25 09:46:07;;;;;;;146.18;139.95;;;;;;;25.47;46.28;100643.44;5044892;28;20032;-71
2023/08/25 09:48:33;;;;;;;145.88;139.25;;;;;;;25.47;46.59;100660.03;5047729;28;20044;-71
2023/08/25 09:50:59;;;;;;;144.75;138.55;;;;;;;25.45;46.81;100668.69;5048395;28;20377;-71
2023/08/25 09:53:31;;;;;;;142.70;136.50;;;;;;;25.46;46.50;100666.72;5047823;28;20040;-71
2023/08/25 09:56:01;;;;;;;144.52;138.18;;;;;;;25.46;46.69;100661.19;5040397;28;20102;-71
2023/08/25 09:58:28;;;;;;;142.32;136.27;;;;;;;25.46;46.27;100661.19;5051878;28;20037;-71
2023/08/25 10:00:54;;;;;;;142.40;136.35;;;;;;;25.46;46.22;100656.47;5035963;28;20120;-70
2023/08/25 10:03:21;;;;;;;141.73;135.70;;;;;;;25.47;46.40;100657.28;5045323;28;20124;-69
2023/08/25 10:05:47;;;;;;;142.43;136.20;;;;;;;25.46;46.53;100662.00;5053685;28;20478;-72
2023/08/25 10:08:14;;;;;;;145.48;139.15;;;;;;;25.45;46.66;100674.22;5041141;28;20057;-74
2023/08/25 10:10:43;;;;;;;145.15;138.98;;;;;;;25.47;46.70;100671.09;5051228;28;20082;-71
2023/08/25 10:13:12;;;;;;;145.88;139.52;;;;;;;25.47;46.59;100673.88;5047914;28;20030;-71
2023/08/25 10:15:40;;;;;;;142.43;136.30;;;;;;;25.47;46.38;100674.66;5042979;28;20549;-71
2023/08/25 10:18:08;;;;;;;144.05;137.85;;;;;;;25.45;46.46;100668.69;5043327;28;20481;-71
2023/08/25 10:20:37;;;;;;;145.32;139.02;;;;;;;25.46;46.31;100667.53;5037291;28;20033;-71
2023/08/25 10:23:08;;;;;;;145.55;139.10;;;;;;;25.46;46.45;100662.00;5043646;28;20032;-70
2023/08/25 10:25:36;;;;;;;140.82;134.80;;;;;;;25.47;46.26;100668.34;5051540;28;20107;-71
2023/08/25 10:28:03;;;;;;;143.45;137.25;;;;;;;25.47;46.42;100676.63;5050747;28;20397;-71
2023/08/25 10:30:30;;;;;;;142.63;136.43;;;;;;;25.46;46.34;100675.81;5040431;28;20098;-70
2023/08/25 10:32:56;;;;;;;146.90;140.25;;;;;;;25.47;46.64;100673.88;5032767;28;20041;-71
2023/08/25 10:35:38;;;;;;;145.23;139.02;;;;;;;25.44;46.38;100667.06;5045400;28;20040;-71
2023/08/25 10:38:04;;;;;;;145.68;139.38;;;;;;;25.46;46.66;100672.25;5042155;28;20045;-71
2023/08/25 10:40:41;;;;;;;144.60;138.43;;;;;;;25.46;46.58;100666.72;5034319;28;20038;-71
2023/08/25 10:43:06;;;;;;;143.52;137.35;;;;;;;25.46;46.43;100666.72;5031866;28;20025;-71
2023/08/25 10:45:36;;;;;;;148.27;141.88;;;;;;;25.46;46.55;100664.78;5047439;28;20040;-71
2023/08/25 10:48:01;;;;;;;145.52;139.07;;;;;;;25.47;46.18;100671.91;5043904;28;20037;-71
2023/08/25 10:50:27;;;;;;;145.18;138.90;;;;;;;25.48;46.48;100664.44;5037050;28;20036;-71
2023/08/25 10:52:54;;;;;;;143.02;136.90;;;;;;;25.48;46.30;100662.47;5023805;28;20047;-70